createdAt,value
2023-02-17T00:00:55.467Z,24.20
2023-02-17T00:03:24.915Z,32.20
2023-02-17T00:05:53.230Z,26.20
2023-02-17T00:08:21.187Z,25.80
2023-02-17T00:10:58.747Z,25.00
2023-02-17T00:13:26.999Z,26.60
2023-02-17T00:15:55.043Z,27.40
2023-02-17T00:18:24.422Z,27.40
2023-02-17T00:20:52.413Z,12.60
2023-02-17T00:23:20.344Z,22.40
2023-02-17T00:25:48.265Z,25.60
2023-02-17T00:28:16.531Z,21.00
2023-02-17T00:30:44.505Z,21.00
2023-02-17T00:33:12.471Z,25.80
2023-02-17T00:35:42.694Z,25.60
2023-02-17T00:38:10.619Z,22.80
2023-02-17T00:40:39.007Z,22.00
2023-02-17T00:43:07.262Z,23.00
2023-02-17T00:45:35.267Z,23.00
2023-02-17T00:48:03.183Z,25.00
2023-02-17T00:50:31.125Z,24.60
2023-02-17T00:53:00.710Z,23.20
2023-02-17T00:55:28.599Z,21.80
2023-02-17T00:57:56.771Z,22.60
2023-02-17T01:00:24.968Z,22.80
2023-02-17T01:02:52.927Z,24.60
2023-02-17T01:05:20.931Z,25.40
2023-02-17T01:07:48.979Z,29.80
2023-02-17T01:10:19.701Z,27.00
2023-02-17T01:12:47.762Z,31.20
2023-02-17T01:15:15.722Z,30.40
2023-02-17T01:17:43.686Z,45.60
2023-02-17T01:20:12.132Z,69.75
2023-02-17T01:22:40.838Z,37.60
2023-02-17T01:25:09.047Z,74.75
2023-02-17T01:27:38.644Z,78.60
2023-02-17T01:30:07.678Z,53.20
2023-02-17T01:32:35.625Z,75.40
2023-02-17T01:35:03.698Z,53.80
2023-02-17T01:37:33.433Z,44.80
2023-02-17T01:40:01.452Z,40.20
2023-02-17T01:42:29.334Z,64.40
2023-02-17T01:45:39.984Z,50.40
2023-02-17T01:48:11.235Z,47.80
2023-02-17T01:50:41.977Z,54.40
2023-02-17T01:53:10.340Z,55.80
2023-02-17T01:55:38.621Z,86.50
2023-02-17T01:58:06.621Z,96.25
2023-02-17T02:00:34.781Z,70.80
2023-02-17T02:03:03.100Z,95.75
2023-02-17T02:05:32.529Z,92.50
2023-02-17T02:08:00.470Z,94.50
2023-02-17T02:10:28.345Z,80.75
2023-02-17T02:12:56.240Z,67.60
2023-02-17T02:15:24.881Z,62.40
2023-02-17T02:18:01.495Z,66.20
2023-02-17T02:21:02.597Z,71.40
2023-02-17T02:24:00.809Z,67.80
2023-02-17T02:27:04.021Z,71.60
2023-02-17T02:29:55.785Z,85.25
2023-02-17T02:32:40.767Z,57.20
2023-02-17T02:35:10.303Z,55.40
2023-02-17T02:37:40.775Z,81.25
2023-02-17T02:40:09.758Z,62.60
2023-02-17T02:42:37.672Z,66.80
2023-02-17T02:45:07.127Z,64.00
2023-02-17T02:47:47.871Z,61.20
2023-02-17T02:50:17.579Z,101.00
2023-02-17T02:52:50.364Z,93.67
2023-02-17T02:55:20.420Z,92.33
2023-02-17T02:57:51.459Z,88.50
2023-02-17T03:00:21.812Z,98.50
2023-02-17T03:02:53.436Z,74.50
2023-02-17T03:05:25.869Z,73.00
2023-02-17T03:07:56.658Z,79.50
2023-02-17T03:10:24.825Z,81.75
2023-02-17T03:12:52.694Z,88.25
2023-02-17T03:15:22.369Z,75.75
2023-02-17T03:17:51.905Z,71.80
2023-02-17T03:20:19.962Z,75.00
2023-02-17T03:22:48.336Z,79.00
2023-02-17T03:25:16.421Z,77.75
2023-02-17T03:27:44.460Z,83.00
2023-02-17T03:30:14.325Z,88.25
2023-02-17T03:32:43.872Z,69.50
2023-02-17T03:35:13.254Z,86.25
2023-02-17T03:37:41.160Z,80.00
2023-02-17T03:40:09.819Z,85.00
2023-02-17T03:42:37.744Z,83.50
2023-02-17T03:45:06.244Z,84.00
2023-02-17T03:47:34.593Z,67.50
2023-02-17T03:50:02.668Z,84.50
2023-02-17T03:52:31.944Z,74.50
2023-02-17T03:54:59.844Z,83.50
2023-02-17T03:57:27.779Z,60.25
2023-02-17T03:59:55.721Z,59.75
2023-02-17T04:02:24.026Z,86.75
2023-02-17T04:04:51.916Z,86.50
2023-02-17T04:07:19.826Z,86.00
2023-02-17T04:09:49.297Z,89.75
2023-02-17T04:12:17.180Z,57.25
2023-02-17T04:14:45.056Z,60.00
2023-02-17T04:17:12.937Z,68.25
2023-02-17T04:19:41.109Z,57.75
2023-02-17T04:22:09.088Z,63.00
2023-02-17T04:24:37.332Z,48.25
2023-02-17T04:27:06.807Z,35.20
2023-02-17T04:29:35.023Z,31.00
2023-02-17T04:32:03.166Z,24.80
2023-02-17T04:34:31.165Z,29.40
2023-02-17T04:36:59.718Z,24.40
2023-02-17T04:39:27.640Z,31.00
2023-02-17T04:41:55.730Z,30.60
2023-02-17T04:44:25.064Z,28.60
2023-02-17T04:46:53.274Z,32.60
2023-02-17T04:49:21.223Z,23.60
2023-02-17T04:51:49.210Z,22.00
2023-02-17T04:54:17.145Z,29.80
2023-02-17T04:56:45.043Z,31.20
2023-02-17T04:59:13.343Z,27.20
2023-02-17T05:01:42.748Z,30.80
2023-02-17T05:04:10.691Z,27.60
2023-02-17T05:06:38.632Z,24.00
2023-02-17T05:09:06.544Z,22.20
2023-02-17T05:11:34.501Z,23.00
2023-02-17T05:14:02.544Z,24.80
2023-02-17T05:16:30.434Z,31.60
2023-02-17T05:18:59.748Z,26.60
2023-02-17T05:21:28.143Z,20.40
2023-02-17T05:23:56.066Z,27.40
2023-02-17T05:26:23.909Z,29.80
2023-02-17T05:28:52.210Z,23.40
2023-02-17T05:31:20.271Z,20.40
2023-02-17T05:33:48.241Z,28.80
2023-02-17T05:36:17.893Z,14.60
2023-02-17T05:38:49.174Z,26.00
2023-02-17T05:41:17.153Z,25.40
2023-02-17T05:43:45.320Z,20.80
2023-02-17T05:46:13.253Z,23.00
2023-02-17T05:48:41.391Z,22.40
2023-02-17T05:51:09.943Z,21.00
2023-02-17T05:53:39.183Z,14.20
2023-02-17T05:56:08.167Z,23.40
2023-02-17T05:58:36.288Z,26.80
2023-02-17T06:01:08.317Z,23.80
2023-02-17T06:03:36.264Z,26.40
2023-02-17T06:06:04.881Z,29.60
2023-02-17T06:08:33.072Z,20.60
2023-02-17T06:11:02.375Z,23.80
2023-02-17T06:13:30.801Z,19.80
2023-02-17T06:15:59.095Z,18.40
2023-02-17T06:18:27.006Z,27.60
2023-02-17T06:20:56.138Z,28.80
2023-02-17T06:23:24.569Z,19.80
2023-02-17T06:25:52.465Z,25.60
2023-02-17T06:28:22.006Z,23.00
2023-02-17T06:30:50.278Z,24.60
2023-02-17T06:33:18.216Z,25.80
2023-02-17T06:35:49.613Z,23.00
2023-02-17T06:38:17.904Z,22.80
2023-02-17T06:40:45.846Z,13.40
2023-02-17T06:43:13.721Z,21.00
2023-02-17T06:45:43.093Z,21.80
2023-02-17T06:48:10.971Z,24.60
2023-02-17T06:50:39.253Z,24.40
2023-02-17T06:53:07.999Z,21.20
2023-02-17T06:55:37.394Z,24.20
2023-02-17T06:58:05.360Z,17.60
2023-02-17T07:00:33.278Z,15.80
2023-02-17T07:03:02.807Z,32.60
2023-02-17T07:05:30.844Z,19.80
2023-02-17T07:07:58.850Z,18.20
2023-02-17T07:10:26.850Z,21.60
2023-02-17T07:12:55.068Z,14.20
2023-02-17T07:15:22.975Z,17.60
2023-02-17T07:17:51.002Z,26.00
2023-02-17T07:20:20.467Z,20.60
2023-02-17T07:22:48.418Z,23.00
2023-02-17T07:25:16.399Z,14.20
2023-02-17T07:27:44.641Z,24.20
2023-02-17T07:30:13.363Z,22.20
2023-02-17T07:32:41.333Z,25.80
2023-02-17T07:35:09.475Z,22.80
2023-02-17T07:37:38.802Z,15.60
2023-02-17T07:40:08.246Z,17.20
2023-02-17T07:42:36.481Z,20.80
2023-02-17T07:45:04.679Z,14.40
2023-02-17T07:47:33.599Z,15.60
2023-02-17T07:50:01.512Z,13.00
2023-02-17T07:52:29.418Z,17.40
2023-02-17T07:54:58.721Z,16.60
2023-02-17T07:57:26.794Z,15.40
2023-02-17T07:59:54.982Z,16.00
2023-02-17T08:02:23.033Z,17.80
2023-02-17T08:04:51.160Z,10.20
2023-02-17T08:07:19.293Z,22.20
2023-02-17T08:10:10.204Z,15.20
2023-02-17T08:12:58.056Z,19.80
2023-02-17T08:15:26.108Z,25.00
2023-02-17T08:17:54.087Z,25.40
2023-02-17T08:20:21.957Z,20.60
2023-02-17T08:22:49.799Z,19.40
2023-02-17T08:25:19.032Z,18.40
2023-02-17T08:27:48.413Z,15.20
2023-02-17T08:30:16.708Z,23.40
2023-02-17T08:32:47.447Z,17.20
2023-02-17T08:35:15.521Z,21.60
2023-02-17T08:37:43.421Z,18.40
2023-02-17T08:40:11.646Z,21.60
2023-02-17T08:42:39.920Z,15.00
2023-02-17T08:45:09.500Z,12.40
2023-02-17T08:47:37.645Z,22.80
2023-02-17T08:50:06.376Z,21.80
2023-02-17T08:52:35.558Z,18.60
2023-02-17T08:55:03.529Z,21.40
2023-02-17T08:57:31.434Z,15.20
2023-02-17T08:59:59.672Z,21.60
2023-02-17T09:02:28.952Z,15.80
2023-02-17T09:04:56.992Z,23.00
2023-02-17T09:07:25.191Z,18.00
2023-02-17T09:09:53.150Z,18.00
2023-02-17T09:12:21.097Z,16.40
2023-02-17T09:14:49.128Z,13.80
2023-02-17T09:17:17.084Z,21.60
2023-02-17T09:19:46.489Z,15.40
2023-02-17T09:22:30.543Z,19.00
2023-02-17T09:24:59.544Z,12.20
2023-02-17T09:27:27.929Z,15.40
2023-02-17T09:29:56.014Z,16.80
2023-02-17T09:32:24.156Z,18.40
2023-02-17T09:34:54.359Z,13.80
2023-02-17T09:37:23.116Z,21.40
2023-02-17T09:39:51.067Z,16.00
2023-02-17T09:42:20.203Z,18.00
2023-02-17T09:44:49.933Z,18.60
2023-02-17T09:47:20.375Z,18.80
2023-02-17T09:49:49.650Z,18.60
2023-02-17T09:52:21.448Z,16.80
2023-02-17T09:54:54.710Z,17.40
2023-02-17T09:57:23.279Z,9.00
2023-02-17T09:59:53.421Z,16.40
2023-02-17T10:02:26.354Z,15.00
2023-02-17T10:04:54.368Z,18.00
2023-02-17T10:07:26.916Z,17.00
2023-02-17T10:09:56.600Z,13.00
2023-02-17T10:12:26.068Z,16.80
2023-02-17T10:14:56.711Z,13.00
2023-02-17T10:17:28.149Z,9.20
2023-02-17T10:19:58.194Z,15.80
2023-02-17T10:22:27.843Z,13.80
2023-02-17T10:24:55.767Z,12.80
2023-02-17T10:27:31.469Z,13.20
2023-02-17T10:30:06.354Z,12.00
2023-02-17T10:32:49.573Z,15.00
2023-02-17T10:35:18.270Z,9.00
2023-02-17T10:37:50.898Z,13.00
2023-02-17T10:40:21.461Z,14.20
2023-02-17T10:42:50.864Z,12.20
2023-02-17T10:45:25.317Z,14.20
2023-02-17T10:47:54.585Z,8.20
2023-02-17T10:50:23.249Z,4.00
2023-02-17T10:53:00.124Z,11.20
2023-02-17T10:55:38.045Z,12.40
2023-02-17T10:58:11.415Z,9.40
2023-02-17T11:00:47.737Z,11.60
2023-02-17T11:03:22.346Z,9.60
2023-02-17T11:05:55.234Z,7.00
2023-02-17T11:08:31.512Z,12.40
2023-02-17T11:11:04.664Z,12.00
2023-02-17T11:13:35.490Z,11.00
2023-02-17T11:16:03.473Z,10.20
2023-02-17T11:18:33.523Z,12.40
2023-02-17T11:21:03.092Z,8.20
2023-02-17T11:23:32.576Z,13.40
2023-02-17T11:26:03.045Z,13.00
2023-02-17T11:28:31.365Z,10.80
2023-02-17T11:31:00.406Z,10.80
2023-02-17T11:33:31.890Z,7.40
2023-02-17T11:35:59.892Z,12.40
2023-02-17T11:38:28.484Z,13.80
2023-02-17T11:40:59.358Z,7.40
2023-02-17T11:43:28.626Z,10.80
2023-02-17T11:46:02.052Z,12.00
2023-02-17T11:48:45.797Z,10.00
2023-02-17T11:51:15.966Z,10.20
2023-02-17T11:53:50.440Z,6.00
2023-02-17T11:56:20.625Z,9.00
2023-02-17T11:59:19.920Z,12.60
2023-02-17T12:02:03.204Z,6.00
2023-02-17T12:04:31.319Z,7.40
2023-02-17T12:07:30.139Z,7.00
2023-02-17T12:10:02.830Z,9.25
2023-02-17T12:12:52.458Z,4.00
2023-02-17T12:15:35.843Z,6.75
2023-02-17T12:18:10.074Z,4.00
2023-02-17T12:20:45.644Z,9.00
2023-02-17T12:23:31.251Z,7.50
2023-02-17T12:26:07.349Z,9.00
2023-02-17T12:28:53.970Z,7.00
2023-02-17T12:31:28.872Z,9.25
2023-02-17T12:33:59.186Z,4.00
2023-02-17T12:36:30.222Z,6.00
2023-02-17T12:39:00.169Z,6.00
2023-02-17T12:41:28.699Z,4.50
2023-02-17T12:44:07.235Z,6.80
2023-02-17T12:46:43.848Z,3.75
2023-02-17T12:49:15.813Z,7.00
2023-02-17T12:51:45.684Z,3.75
2023-02-17T12:54:16.785Z,3.60
2023-02-17T12:56:57.043Z,6.25
2023-02-17T12:59:28.675Z,6.75
2023-02-17T13:01:58.748Z,3.25
2023-02-17T13:04:26.702Z,6.00
2023-02-17T13:06:59.117Z,7.50
2023-02-17T13:09:31.155Z,5.50
2023-02-17T13:12:10.147Z,5.80
2023-02-17T13:14:47.057Z,6.40
2023-02-17T13:17:27.054Z,6.00
2023-02-17T13:20:07.352Z,5.20
2023-02-17T13:22:35.276Z,6.40
2023-02-17T13:25:03.256Z,7.60
2023-02-17T13:27:35.217Z,6.00
2023-02-17T13:30:05.584Z,6.60
2023-02-17T13:32:34.402Z,9.40
2023-02-17T13:35:06.083Z,8.40
2023-02-17T13:37:42.416Z,9.20
2023-02-17T13:40:35.591Z,7.40
2023-02-17T13:43:10.317Z,6.40
2023-02-17T13:45:42.588Z,5.25
2023-02-17T13:48:15.911Z,7.80
2023-02-17T13:50:47.843Z,9.80
2023-02-17T13:53:24.584Z,4.00
2023-02-17T13:55:52.742Z,5.20
2023-02-17T13:58:24.358Z,4.80
2023-02-17T14:00:53.870Z,4.00
2023-02-17T14:03:23.142Z,7.00
2023-02-17T14:05:52.267Z,5.60
2023-02-17T14:08:24.297Z,7.80
2023-02-17T14:10:52.975Z,6.80
2023-02-17T14:13:21.276Z,4.40
2023-02-17T14:15:55.227Z,7.00
2023-02-17T14:18:30.365Z,5.60
2023-02-17T14:21:06.070Z,6.00
2023-02-17T14:23:48.090Z,5.20
2023-02-17T14:26:28.525Z,4.00
2023-02-17T14:28:57.618Z,6.40
2023-02-17T14:31:27.082Z,8.20
2023-02-17T14:33:56.607Z,5.40
2023-02-17T14:36:33.153Z,6.60
2023-02-17T14:39:01.252Z,9.00
2023-02-17T14:41:29.352Z,9.00
2023-02-17T14:43:57.607Z,24.80
2023-02-17T14:46:27.088Z,7.00
2023-02-17T14:48:55.170Z,7.00
2023-02-17T14:51:24.201Z,10.00
2023-02-17T14:53:52.454Z,6.00
2023-02-17T14:56:24.249Z,9.00
2023-02-17T14:58:53.136Z,0.20
2023-02-17T15:01:21.805Z,13.40
2023-02-17T15:03:52.524Z,10.00
2023-02-17T15:06:22.251Z,9.60
2023-02-17T15:08:50.390Z,4.80
2023-02-17T15:11:20.727Z,10.60
2023-02-17T15:13:48.767Z,9.80
2023-02-17T15:16:17.415Z,7.00
2023-02-17T15:18:45.417Z,5.20
2023-02-17T15:21:21.171Z,6.60
2023-02-17T15:23:49.553Z,7.00
2023-02-17T15:26:17.743Z,6.40
2023-02-17T15:28:45.741Z,10.40
2023-02-17T15:31:15.604Z,6.20
2023-02-17T15:33:43.829Z,7.00
2023-02-17T15:36:13.811Z,6.00
2023-02-17T15:38:43.533Z,13.80
2023-02-17T15:41:15.693Z,7.80
2023-02-17T15:43:43.734Z,7.80
2023-02-17T15:46:13.483Z,9.40
2023-02-17T15:48:41.511Z,9.00
2023-02-17T15:51:12.213Z,7.00
2023-02-17T15:53:40.629Z,8.60
2023-02-17T15:56:13.720Z,14.80
2023-02-17T15:58:41.727Z,8.00
2023-02-17T16:01:13.918Z,7.00
2023-02-17T16:03:41.902Z,11.60
2023-02-17T16:06:09.909Z,9.00
2023-02-17T16:08:39.954Z,9.20
2023-02-17T16:11:10.652Z,12.00
2023-02-17T16:13:40.629Z,7.80
2023-02-17T16:16:10.739Z,7.00
2023-02-17T16:18:38.736Z,9.40
2023-02-17T16:21:07.626Z,5.20
2023-02-17T16:23:36.092Z,8.20
2023-02-17T16:26:04.311Z,6.00
2023-02-17T16:28:32.713Z,5.60
2023-02-17T16:31:02.121Z,6.80
2023-02-17T16:33:30.112Z,5.20
2023-02-17T16:35:58.124Z,8.20
2023-02-17T16:38:26.118Z,7.00
2023-02-17T16:40:54.906Z,8.20
2023-02-17T16:43:24.052Z,10.40
2023-02-17T16:45:53.773Z,9.20
2023-02-17T16:48:23.974Z,11.60
2023-02-17T16:50:52.133Z,11.40
2023-02-17T16:53:20.165Z,7.00
2023-02-17T16:55:48.167Z,15.00
2023-02-17T16:58:17.068Z,7.80
2023-02-17T17:00:45.215Z,9.00
2023-02-17T17:03:13.237Z,6.80
2023-02-17T17:05:43.396Z,9.40
2023-02-17T17:08:14.312Z,10.40
2023-02-17T17:10:42.240Z,11.20
2023-02-17T17:13:10.685Z,6.40
2023-02-17T17:15:38.725Z,9.20
2023-02-17T17:18:08.776Z,7.80
2023-02-17T17:20:37.506Z,11.80
2023-02-17T17:23:08.251Z,4.40
2023-02-17T17:25:36.816Z,9.80
2023-02-17T17:28:13.698Z,12.20
2023-02-17T17:30:42.186Z,6.60
2023-02-17T17:33:10.127Z,6.20
2023-02-17T17:35:38.231Z,9.60
2023-02-17T17:38:08.222Z,9.00
2023-02-17T17:40:48.461Z,12.20
2023-02-17T17:43:16.985Z,7.20
2023-02-17T17:45:45.270Z,12.40
2023-02-17T17:48:14.168Z,13.60
2023-02-17T17:50:42.262Z,11.40
2023-02-17T17:53:11.979Z,10.00
2023-02-17T17:55:39.948Z,10.40
2023-02-17T17:58:07.944Z,14.00
2023-02-17T18:00:36.260Z,10.20
2023-02-17T18:03:05.167Z,14.40
2023-02-17T18:05:33.188Z,10.80
2023-02-17T18:08:01.573Z,12.60
2023-02-17T18:10:30.922Z,6.20
2023-02-17T18:12:58.895Z,13.80
2023-02-17T18:15:26.874Z,12.60
2023-02-17T18:17:54.899Z,12.80
2023-02-17T18:20:23.024Z,19.00
2023-02-17T18:22:51.297Z,10.20
2023-02-17T18:25:19.404Z,11.20
2023-02-17T18:27:48.864Z,15.20
2023-02-17T18:30:17.934Z,13.00
2023-02-17T18:32:46.017Z,8.20
2023-02-17T18:35:14.049Z,14.40
2023-02-17T18:37:42.010Z,22.40
2023-02-17T18:40:12.574Z,16.40
2023-02-17T18:42:40.550Z,18.40
2023-02-17T18:45:10.779Z,13.40
2023-02-17T18:47:38.964Z,15.20
2023-02-17T18:50:08.123Z,14.20
2023-02-17T18:52:37.303Z,14.60
2023-02-17T18:55:05.490Z,15.00
2023-02-17T18:57:33.447Z,18.40
2023-02-17T19:00:01.478Z,14.80
2023-02-17T19:02:31.206Z,16.00
2023-02-17T19:04:59.158Z,16.20
2023-02-17T19:07:27.086Z,17.40
2023-02-17T19:09:55.023Z,13.00
2023-02-17T19:12:22.875Z,12.00
2023-02-17T19:14:55.656Z,13.40
2023-02-17T19:17:24.007Z,15.00
2023-02-17T19:19:53.408Z,17.20
2023-02-17T19:22:21.392Z,18.80
2023-02-17T19:24:51.488Z,16.00
2023-02-17T19:27:19.453Z,10.00
2023-02-17T19:29:47.486Z,17.20
2023-02-17T19:32:15.788Z,19.20
2023-02-17T19:34:43.769Z,17.60
2023-02-17T19:37:13.162Z,16.80
2023-02-17T19:39:41.087Z,22.40
2023-02-17T19:42:09.235Z,26.80
2023-02-17T19:44:37.408Z,22.40
2023-02-17T19:47:05.334Z,19.80
2023-02-17T19:49:33.324Z,16.00
2023-02-17T19:52:01.605Z,23.00
2023-02-17T19:54:30.891Z,30.20
2023-02-17T19:56:58.836Z,24.60
2023-02-17T19:59:27.075Z,20.40
2023-02-17T20:01:55.015Z,13.80
2023-02-17T20:04:23.002Z,18.80
2023-02-17T20:06:52.293Z,19.00
2023-02-17T20:09:21.041Z,19.60
2023-02-17T20:11:52.949Z,24.00
2023-02-17T20:14:21.362Z,18.00
2023-02-17T20:16:49.959Z,21.60
2023-02-17T20:19:17.969Z,17.60
2023-02-17T20:21:46.219Z,19.40
2023-02-17T20:24:15.186Z,18.60
2023-02-17T20:26:44.384Z,18.40
2023-02-17T20:29:13.843Z,19.80
2023-02-17T20:31:41.979Z,17.60
2023-02-17T20:34:15.735Z,18.20
2023-02-17T20:36:43.614Z,14.60
2023-02-17T20:39:12.161Z,19.00
2023-02-17T20:41:40.341Z,14.80
2023-02-17T20:44:08.263Z,21.20
2023-02-17T20:46:37.566Z,18.40
2023-02-17T20:49:05.507Z,14.40
2023-02-17T20:51:33.435Z,14.60
2023-02-17T20:54:01.366Z,13.00
2023-02-17T20:56:33.778Z,15.40
2023-02-17T20:59:01.743Z,15.60
2023-02-17T21:01:29.793Z,15.60
2023-02-17T21:03:59.048Z,16.00
2023-02-17T21:06:28.418Z,15.00
2023-02-17T21:08:57.434Z,20.20
2023-02-17T21:11:25.588Z,21.40
2023-02-17T21:13:53.851Z,24.00
2023-02-17T21:16:27.259Z,18.60
2023-02-17T21:18:55.297Z,11.20
2023-02-17T21:21:24.668Z,17.00
2023-02-17T21:23:53.166Z,18.00
2023-02-17T21:26:21.777Z,23.80
2023-02-17T21:28:50.049Z,9.60
2023-02-17T21:31:18.139Z,19.40
2023-02-17T21:33:46.196Z,23.80
2023-02-17T21:36:14.980Z,18.80
2023-02-17T21:38:44.376Z,21.80
2023-02-17T21:41:13.560Z,19.00
2023-02-17T21:43:59.180Z,17.40
2023-02-17T21:46:27.400Z,17.80
2023-02-17T21:48:56.245Z,19.80
2023-02-17T21:51:24.154Z,18.80
2023-02-17T21:53:53.828Z,22.20
2023-02-17T21:56:22.386Z,23.60
2023-02-17T21:58:51.586Z,22.00
2023-02-17T22:01:19.789Z,15.00
2023-02-17T22:03:50.747Z,15.40
2023-02-17T22:06:20.987Z,16.40
2023-02-17T22:08:48.916Z,19.80
2023-02-17T22:11:19.567Z,19.00
2023-02-17T22:13:47.640Z,20.80
2023-02-17T22:16:16.055Z,17.40
2023-02-17T22:18:43.993Z,16.00
2023-02-17T22:21:12.642Z,24.00
2023-02-17T22:23:40.969Z,23.80
2023-02-17T22:26:09.626Z,17.60
2023-02-17T22:28:39.169Z,16.40
2023-02-17T22:31:07.393Z,15.80
2023-02-17T22:33:35.437Z,17.60
2023-02-17T22:36:05.170Z,18.80
2023-02-17T22:38:34.595Z,17.80
2023-02-17T22:41:06.027Z,21.00
2023-02-17T22:43:33.973Z,16.80
2023-02-17T22:46:03.898Z,21.40
2023-02-17T22:48:33.011Z,28.80
2023-02-17T22:51:05.013Z,19.40
2023-02-17T22:53:33.207Z,12.20
2023-02-17T22:56:01.237Z,18.80
2023-02-17T22:58:29.196Z,14.60
2023-02-17T23:01:05.397Z,22.00
2023-02-17T23:03:33.416Z,13.80
2023-02-17T23:06:01.655Z,18.60
2023-02-17T23:08:30.052Z,14.60
2023-02-17T23:10:58.016Z,21.80
2023-02-17T23:13:26.029Z,19.80
2023-02-17T23:15:54.028Z,16.00
2023-02-17T23:18:23.700Z,23.00
2023-02-17T23:20:58.258Z,23.20
2023-02-17T23:23:27.014Z,18.00
2023-02-17T23:25:55.829Z,17.80
2023-02-17T23:28:24.792Z,22.40
2023-02-17T23:30:52.819Z,22.00
2023-02-17T23:33:21.653Z,20.00
2023-02-17T23:35:51.027Z,22.80
2023-02-17T23:38:20.858Z,18.60
2023-02-17T23:40:49.752Z,29.20
2023-02-17T23:43:17.891Z,14.80
2023-02-17T23:45:45.904Z,14.60
2023-02-17T23:48:14.028Z,16.80
2023-02-17T23:50:41.987Z,21.20
2023-02-17T23:53:11.380Z,22.60
2023-02-17T23:55:39.606Z,20.00
2023-02-17T23:58:07.601Z,21.80
